Time;durP1;ratioP1;P1;durP2;ratioP2;P2;SDS_P1;SDS_P2;PMS_P1;PMS_P2;Temp;Humidity;BMP_temperature;BMP_pressure;BME280_temperature;BME280_humidity;BME280_pressure;Samples;Min_cycle;Max_cycle;Signal;HPM_P1;HPM_P2
2021/05/11 00:02:12;;;;;;;14.95;13.35;;;14.60;99.90;;;;;;12206819;28;20048;-79
2021/05/11 00:08:13;;;;;;;14.80;12.75;;;14.60;99.90;;;;;;12206906;28;20056;-79
2021/05/11 00:14:14;;;;;;;15.98;14.25;;;14.60;99.90;;;;;;12216295;28;20143;-79
2021/05/11 00:20:18;;;;;;;16.13;14.52;;;14.60;99.90;;;;;;12203861;28;20251;-79
2021/05/11 00:26:20;;;;;;;20.70;15.27;;;14.70;99.90;;;;;;12212063;28;20599;-79
2021/05/11 00:32:21;;;;;;;15.23;13.77;;;14.70;99.90;;;;;;12204583;28;20555;-79
2021/05/11 00:38:23;;;;;;;14.98;13.43;;;14.80;99.90;;;;;;12206491;28;20052;-79
2021/05/11 00:44:26;;;;;;;19.42;15.00;;;14.90;99.90;;;;;;12207228;28;20142;-79
2021/05/11 00:50:27;;;;;;;16.02;14.32;;;15.00;99.90;;;;;;12212620;28;20051;-79
2021/05/11 00:56:29;;;;;;;15.88;14.30;;;15.00;99.90;;;;;;12201502;28;20080;-79
2021/05/11 01:02:30;;;;;;;17.85;16.02;;;14.80;99.90;;;;;;12210277;28;20504;-79
2021/05/11 01:08:31;;;;;;;16.45;14.80;;;14.80;99.90;;;;;;12220646;28;20524;-79
2021/05/11 01:14:33;;;;;;;15.98;14.35;;;15.00;99.90;;;;;;12206754;28;20044;-79
2021/05/11 01:20:38;;;;;;;18.95;14.95;;;15.10;99.90;;;;;;12202738;28;20079;-79
2021/05/11 01:26:53;;;;;;;17.10;15.30;;;15.00;99.90;;;;;;12207736;28;20052;-79
2021/05/11 02:22:35;;;;;;;7.57;4.63;;;14.50;99.90;;;;;;12238497;28;20051;-79
2021/05/11 02:24:40;;;;;;;5.30;3.80;;;14.40;99.90;;;;;;12219442;28;20143;-79
2021/05/11 02:30:41;;;;;;;7.18;4.10;;;14.20;99.90;;;;;;12218034;28;20080;-79
2021/05/11 02:36:42;;;;;;;6.28;3.83;;;14.10;99.90;;;;;;12217711;28;20123;-79
2021/05/11 02:42:46;;;;;;;5.13;4.50;;;13.90;99.90;;;;;;12220418;28;20350;-80
2021/05/11 02:48:47;;;;;;;9.10;5.88;;;13.90;99.90;;;;;;12231876;28;20076;-80
2021/05/11 02:54:48;;;;;;;10.23;5.65;;;13.90;99.90;;;;;;12227671;28;20074;-79
2021/05/11 03:00:50;;;;;;;8.15;5.65;;;13.80;99.90;;;;;;12220706;28;20070;-79
2021/05/11 03:06:57;;;;;;;6.68;5.60;;;13.90;99.90;;;;;;12203466;28;20269;-79
2021/05/11 03:12:59;;;;;;;6.95;5.72;;;13.80;99.90;;;;;;12212692;28;20087;-79
2021/05/11 03:19:00;;;;;;;8.32;6.47;;;13.90;99.90;;;;;;12212534;28;20078;-78
2021/05/11 03:25:03;;;;;;;7.88;6.07;;;13.90;99.90;;;;;;12211044;28;20664;-79
2021/05/11 03:31:04;;;;;;;7.28;5.90;;;13.90;99.90;;;;;;12208272;28;20130;-79
2021/05/11 03:37:06;;;;;;;7.32;5.85;;;13.90;99.90;;;;;;12194582;28;20060;-79
2021/05/11 03:43:14;;;;;;;5.68;4.75;;;14.10;99.90;;;;;;12205845;28;20102;-78
2021/05/11 03:49:15;;;;;;;7.55;5.57;;;14.30;99.90;;;;;;12216877;28;20044;-78
2021/05/11 03:55:17;;;;;;;8.95;6.03;;;14.30;99.90;;;;;;12202011;28;20055;-79
2021/05/11 04:01:19;;;;;;;8.00;6.10;;;14.30;99.90;;;;;;12204449;28;20082;-79
2021/05/11 04:07:21;;;;;;;10.50;6.68;;;14.30;99.90;;;;;;12207340;28;20048;-79
2021/05/11 04:19:54;;;;;;;9.95;7.28;;;14.50;99.90;;;;;;12235956;28;20048;-79
2021/05/11 04:25:55;;;;;;;9.10;8.20;;;14.50;99.90;;;;;;12205234;28;20052;-79
2021/05/11 04:31:57;;;;;;;12.30;10.23;;;14.50;99.90;;;;;;12209064;28;20063;-79
2021/05/11 04:37:59;;;;;;;10.18;9.05;;;14.60;99.90;;;;;;12213262;28;20161;-79
2021/05/11 04:44:04;;;;;;;7.97;6.80;;;14.60;99.90;;;;;;12195674;28;20054;-78
2021/05/11 04:50:06;;;;;;;9.07;7.15;;;14.60;99.90;;;;;;12202070;28;20095;-80
2021/05/11 04:56:08;;;;;;;7.95;6.05;;;14.60;99.90;;;;;;12219381;28;20055;-80
2021/05/11 05:02:11;;;;;;;5.03;1.92;;;14.50;99.90;;;;;;12213084;28;20504;-81
2021/05/11 05:08:13;;;;;;;4.07;1.30;;;14.30;99.90;;;;;;12207120;28;20091;-81
2021/05/11 05:14:15;;;;;;;9.45;2.08;;;13.90;99.90;;;;;;12208055;28;20051;-81
2021/05/11 05:20:16;;;;;;;5.72;1.80;;;13.50;99.90;;;;;;12201649;28;20048;-80
2021/05/11 05:26:21;;;;;;;4.90;1.60;;;13.20;99.90;;;;;;12152782;29;20135;-80
2021/05/11 05:32:23;;;;;;;4.93;1.58;;;12.90;99.90;;;;;;12150000;28;20044;-81
2021/05/11 05:38:27;;;;;;;4.50;1.75;;;12.90;99.90;;;;;;12156577;28;20190;-81
2021/05/11 05:44:29;;;;;;;4.40;1.17;;;12.90;99.90;;;;;;12150490;29;20060;-80
2021/05/11 05:50:32;;;;;;;5.95;1.60;;;13.00;99.90;;;;;;12162327;28;20515;-81
2021/05/11 05:56:34;;;;;;;4.07;1.30;;;13.10;99.90;;;;;;12156870;28;20056;-80
2021/05/11 06:02:43;;;;;;;2.65;1.10;;;13.20;99.90;;;;;;12154146;28;20499;-81
2021/05/11 06:08:44;;;;;;;10.05;1.42;;;13.20;99.90;;;;;;12152992;29;20056;-81
2021/05/11 06:21:09;;;;;;;3.08;1.20;;;13.20;99.90;;;;;;12166606;29;20058;-80
2021/05/11 06:27:12;;;;;;;5.93;1.15;;;13.40;99.90;;;;;;12201329;28;20128;-80
2021/05/11 06:33:14;;;;;;;2.78;1.10;;;13.60;99.90;;;;;;12203316;29;20084;-80
2021/05/11 06:39:17;;;;;;;1.90;0.90;;;13.70;99.90;;;;;;12203557;28;20252;-80
2021/05/11 06:46:05;;;;;;;2.95;1.20;;;13.80;99.90;;;;;;12203328;28;20043;-80
2021/05/11 06:58:17;;;;;;;3.58;1.13;;;13.80;99.90;;;;;;12256307;28;20066;-80
2021/05/11 07:04:18;;;;;;;2.58;1.00;;;13.70;99.90;;;;;;12205081;28;20120;-80
2021/05/11 07:10:29;;;;;;;3.92;1.20;;;13.60;99.90;;;;;;12210289;28;20052;-80
2021/05/11 07:16:31;;;;;;;3.13;1.23;;;13.60;99.90;;;;;;12212685;28;20424;-80
2021/05/11 07:22:33;;;;;;;2.35;1.27;;;13.50;99.90;;;;;;12207031;28;20105;-80
2021/05/11 07:34:47;;;;;;;3.42;2.00;;;13.40;99.90;;;;;;12205000;28;20420;-80
2021/05/11 07:40:50;;;;;;;;;;;13.40;99.90;;;;;;12204449;28;20090;-80
2021/05/11 07:46:58;;;;;;;4.00;2.80;;;13.40;99.90;;;;;;12205310;28;20575;-80
2021/05/11 08:31:02;;;;;;;4.32;2.63;;;13.90;99.90;;;;;;12204747;28;20496;-80
2021/05/11 08:37:03;;;;;;;3.72;2.85;;;14.00;99.90;;;;;;12209557;28;20126;-79
2021/05/11 08:43:30;;;;;;;4.78;2.90;;;13.90;99.90;;;;;;12191690;28;20103;-80
2021/05/11 08:49:32;;;;;;;5.00;3.00;;;14.10;99.90;;;;;;12206842;28;20135;-80
2021/05/11 09:58:07;;;;;;;8.13;7.00;;;14.10;99.90;;;;;;12197425;29;20071;-80
2021/05/11 10:49:29;;;;;;;9.18;8.23;;;14.40;99.90;;;;;;12214527;28;20115;-80
2021/05/11 10:55:36;;;;;;;9.18;7.70;;;14.70;99.90;;;;;;12230317;28;20460;-81
2021/05/11 11:01:39;;;;;;;9.50;7.32;;;14.90;99.90;;;;;;12223665;28;20048;-80
2021/05/11 11:07:42;;;;;;;7.88;7.18;;;15.20;99.90;;;;;;12215635;28;20079;-80
2021/05/11 11:14:03;;;;;;;8.15;7.40;;;15.30;99.90;;;;;;12219164;28;20044;-81
2021/05/11 11:20:19;;;;;;;7.65;6.90;;;15.10;99.90;;;;;;12210262;28;20059;-80
2021/05/11 11:26:32;;;;;;;8.07;6.55;;;14.90;99.90;;;;;;12210216;28;20066;-80
2021/05/11 11:32:35;;;;;;;8.75;6.80;;;14.80;99.90;;;;;;12208890;28;20090;-80
2021/05/11 11:38:37;;;;;;;7.10;5.65;;;14.90;99.90;;;;;;12211168;28;20044;-80
2021/05/11 11:44:39;;;;;;;8.02;4.63;;;14.90;99.90;;;;;;12211499;28;20107;-81
2021/05/11 11:50:41;;;;;;;5.78;5.18;;;14.80;99.90;;;;;;12211153;28;20123;-80
2021/05/11 12:03:12;;;;;;;5.13;4.63;;;14.70;99.90;;;;;;12224712;28;20046;-80
2021/05/11 12:09:14;;;;;;;5.45;4.70;;;14.70;99.90;;;;;;12214205;28;20068;-80
2021/05/11 12:15:22;;;;;;;3.97;3.55;;;15.00;99.90;;;;;;12229541;28;20055;-80
2021/05/11 12:21:24;;;;;;;5.55;3.90;;;15.10;99.90;;;;;;12265093;28;20040;-80
2021/05/11 12:27:25;;;;;;;4.88;4.20;;;15.10;99.90;;;;;;12214681;28;20131;-81
2021/05/11 12:33:32;;;;;;;7.25;5.60;;;14.90;99.90;;;;;;12215647;28;20160;-81
2021/05/11 12:39:51;;;;;;;4.78;3.70;;;15.00;99.90;;;;;;12208622;28;20056;-81
2021/05/11 12:45:53;;;;;;;5.97;3.78;;;15.20;99.90;;;;;;12148585;28;20056;-81
2021/05/11 12:51:56;;;;;;;5.15;4.50;;;15.10;99.90;;;;;;12159511;28;20055;-80
2021/05/11 12:58:20;;;;;;;7.05;4.88;;;15.10;99.90;;;;;;12157379;28;20531;-80
2021/05/11 13:04:53;;;;;;;6.10;5.50;;;14.90;99.90;;;;;;12152670;29;20040;-80
2021/05/11 13:19:44;;;;;;;6.95;6.35;;;14.70;99.90;;;;;;12194599;28;20095;-80
2021/05/11 13:36:00;;;;;;;10.07;7.78;;;14.60;99.90;;;;;;12200054;29;20101;-80
2021/05/11 13:42:02;;;;;;;9.68;8.68;;;14.70;99.90;;;;;;12201592;28;20139;-81
2021/05/11 13:48:13;;;;;;;9.68;8.73;;;14.40;99.90;;;;;;12199914;28;20048;-80
2021/05/11 13:54:16;;;;;;;11.00;9.05;;;14.30;99.90;;;;;;12203048;28;20059;-80
2021/05/11 14:06:39;;;;;;;10.02;8.73;;;14.30;99.90;;;;;;12201389;28;20044;-80
2021/05/11 14:12:41;;;;;;;10.93;9.85;;;14.20;99.90;;;;;;12207095;28;20055;-80
2021/05/11 14:18:47;;;;;;;11.23;10.10;;;14.30;99.90;;;;;;12211099;28;20071;-80
2021/05/11 14:24:49;;;;;;;9.43;8.43;;;14.50;99.90;;;;;;12206638;28;20501;-81
2021/05/11 14:30:51;;;;;;;10.45;9.45;;;14.70;99.90;;;;;;12205568;28;20048;-80
2021/05/11 14:36:54;;;;;;;12.00;10.13;;;14.90;99.90;;;;;;12208848;28;20108;-80
2021/05/11 14:42:58;;;;;;;;;;;14.90;99.90;;;;;;12212227;28;20051;-80
2021/05/11 14:49:00;;;;;;;8.15;7.30;;;15.10;99.90;;;;;;12205766;28;19969;-81
2021/05/11 14:55:02;;;;;;;9.05;7.18;;;15.40;99.90;;;;;;12201601;28;20504;-80
2021/05/11 15:01:04;;;;;;;10.05;7.43;;;15.30;99.90;;;;;;12203588;28;20048;-80
2021/05/11 15:07:06;;;;;;;9.93;7.00;;;15.10;99.90;;;;;;12211197;28;20048;-80
2021/05/11 15:13:08;;;;;;;11.77;7.18;;;15.10;99.90;;;;;;12211397;28;20412;-81
2021/05/11 15:19:10;;;;;;;10.23;7.82;;;14.90;99.90;;;;;;12217075;28;20055;-81
2021/05/11 15:25:13;;;;;;;8.55;7.65;;;14.70;99.90;;;;;;12215100;28;20070;-81
2021/05/11 15:31:16;;;;;;;10.35;9.35;;;14.70;99.90;;;;;;12213672;28;20422;-81
2021/05/11 15:37:18;;;;;;;10.10;9.10;;;14.60;99.90;;;;;;12219007;28;20329;-81
2021/05/11 15:43:19;;;;;;;11.35;9.43;;;14.40;99.90;;;;;;12214741;28;20049;-81
2021/05/11 15:49:21;;;;;;;9.85;8.43;;;14.50;99.90;;;;;;12217943;28;20130;-80
2021/05/11 15:55:24;;;;;;;9.82;8.82;;;14.50;99.90;;;;;;12200814;28;20110;-80
2021/05/11 16:01:25;;;;;;;12.10;10.30;;;14.60;99.90;;;;;;12206060;28;20138;-80
2021/05/11 16:07:27;;;;;;;10.68;8.93;;;14.40;99.90;;;;;;12207932;28;20116;-80
2021/05/11 16:13:30;;;;;;;11.82;8.77;;;14.50;99.90;;;;;;12203127;28;20090;-80
2021/05/11 16:19:32;;;;;;;10.32;9.10;;;14.60;99.90;;;;;;12206584;28;20059;-81
2021/05/11 16:25:35;;;;;;;9.68;8.63;;;14.40;99.90;;;;;;12212037;28;20043;-80
2021/05/11 16:31:37;;;;;;;14.63;10.57;;;14.50;99.90;;;;;;12208486;28;20044;-80
2021/05/11 16:37:40;;;;;;;15.70;10.32;;;14.40;99.90;;;;;;12207950;28;20579;-80
2021/05/11 16:43:42;;;;;;;11.40;10.02;;;14.50;99.90;;;;;;12208764;28;20059;-80
2021/05/11 16:49:45;;;;;;;10.40;9.32;;;14.50;99.90;;;;;;12207812;28;20075;-80
2021/05/11 16:55:47;;;;;;;12.52;9.38;;;14.50;99.90;;;;;;12207506;28;20534;-80
2021/05/11 17:01:48;;;;;;;12.25;9.43;;;14.50;99.90;;;;;;12206621;28;21045;-80
2021/05/11 17:07:51;;;;;;;10.80;9.18;;;14.40;99.90;;;;;;12212334;28;20084;-81
2021/05/11 17:13:52;;;;;;;12.95;10.43;;;14.50;99.90;;;;;;12204770;28;20070;-80
2021/05/11 17:19:54;;;;;;;11.93;10.73;;;14.40;99.90;;;;;;12206621;28;20052;-80
2021/05/11 17:25:56;;;;;;;11.88;10.40;;;14.40;99.90;;;;;;12208644;28;20055;-80
2021/05/11 17:31:58;;;;;;;13.20;11.60;;;14.40;99.90;;;;;;12216197;28;20131;-80
2021/05/11 17:38:01;;;;;;;16.35;11.95;;;14.30;99.90;;;;;;12255234;28;20044;-81
2021/05/11 17:44:04;;;;;;;13.38;11.55;;;14.30;99.90;;;;;;12238209;28;20063;-80
2021/05/11 17:50:07;;;;;;;15.13;11.82;;;14.10;99.90;;;;;;12205263;28;20079;-80
2021/05/11 17:56:09;;;;;;;12.73;11.15;;;14.10;99.90;;;;;;12223029;28;20067;-80
2021/05/11 18:02:30;;;;;;;14.63;12.35;;;14.20;99.90;;;;;;12220772;28;20039;-80
2021/05/11 18:08:32;;;;;;;13.75;12.10;;;14.00;99.90;;;;;;12216420;28;20079;-80
2021/05/11 18:14:34;;;;;;;13.93;12.52;;;14.10;99.90;;;;;;12209682;28;20052;-80
2021/05/11 18:20:36;;;;;;;17.75;14.15;;;13.90;99.90;;;;;;12205496;28;20059;-81
2021/05/11 18:26:38;;;;;;;15.48;13.73;;;13.80;99.90;;;;;;12204376;28;20075;-80
2021/05/11 18:32:46;;;;;;;16.10;14.30;;;13.80;99.90;;;;;;12207243;28;20171;-80
2021/05/11 18:38:54;;;;;;;18.60;14.13;;;13.70;99.90;;;;;;12210362;28;20049;-81
2021/05/11 18:44:56;;;;;;;14.85;13.30;;;13.70;99.90;;;;;;12210646;28;20070;-81
2021/05/11 18:50:58;;;;;;;14.57;12.93;;;13.70;99.90;;;;;;12206654;28;20067;-81
2021/05/11 18:57:00;;;;;;;17.25;13.75;;;13.70;99.90;;;;;;12211437;28;20084;-80
2021/05/11 19:03:02;;;;;;;16.08;14.10;;;13.70;99.90;;;;;;12212226;28;20454;-81
2021/05/11 19:09:07;;;;;;;14.95;13.55;;;13.60;99.90;;;;;;12217970;28;20048;-80
2021/05/11 19:15:09;;;;;;;;;;;13.50;99.90;;;;;;12217554;28;20048;-81
2021/05/11 19:21:13;;;;;;;16.88;15.13;;;13.60;99.90;;;;;;12214867;28;19973;-80
2021/05/11 19:27:15;;;;;;;15.82;14.23;;;13.50;99.90;;;;;;12225814;28;20412;-79
2021/05/11 19:33:17;;;;;;;20.05;14.75;;;13.60;99.90;;;;;;12210767;28;20044;-80
2021/05/11 19:39:19;;;;;;;17.67;15.77;;;13.60;99.90;;;;;;12215768;28;20548;-79
2021/05/11 19:45:22;;;;;;;20.92;17.02;;;13.50;99.90;;;;;;12215039;28;20174;-80
2021/05/11 19:51:24;;;;;;;22.83;20.38;;;13.50;99.90;;;;;;12214026;28;20143;-80
2021/05/11 19:57:26;;;;;;;28.05;21.42;;;13.40;99.90;;;;;;12212497;28;20083;-79
2021/05/11 20:03:31;;;;;;;26.50;21.83;;;13.40;99.90;;;;;;12203951;28;20135;-80
2021/05/11 20:09:38;;;;;;;23.10;20.55;;;13.30;99.90;;;;;;12211620;28;20078;-80
2021/05/11 20:15:40;;;;;;;27.00;21.20;;;13.30;99.90;;;;;;12201128;28;20078;-79
2021/05/11 20:21:41;;;;;;;26.05;20.13;;;13.30;99.90;;;;;;12207823;28;20080;-80
2021/05/11 20:27:44;;;;;;;26.23;20.45;;;13.30;99.90;;;;;;12206353;28;20109;-80
2021/05/11 20:33:46;;;;;;;24.40;20.77;;;13.30;99.90;;;;;;12174456;28;20135;-80
2021/05/11 20:39:51;;;;;;;25.02;18.80;;;13.30;99.90;;;;;;12155829;29;20187;-80
2021/05/11 20:45:53;;;;;;;23.38;18.83;;;13.20;99.90;;;;;;12153687;29;21739;-80
2021/05/11 20:51:54;;;;;;;21.33;18.33;;;13.10;99.90;;;;;;12149893;28;20121;-79
2021/05/11 20:57:57;;;;;;;21.58;18.17;;;13.20;99.90;;;;;;12155343;29;20056;-80
2021/05/11 21:04:01;;;;;;;20.30;18.08;;;13.20;99.90;;;;;;12191060;28;20138;-80
2021/05/11 21:10:07;;;;;;;20.73;17.58;;;13.20;99.90;;;;;;12200653;28;21110;-80
2021/05/11 21:16:09;;;;;;;21.73;17.02;;;13.20;99.90;;;;;;12198711;29;20134;-80
2021/05/11 21:22:10;;;;;;;21.13;16.27;;;13.20;99.90;;;;;;12190580;28;20051;-79
2021/05/11 21:28:12;;;;;;;20.13;16.58;;;13.10;99.90;;;;;;12203282;28;20515;-80
2021/05/11 21:34:14;;;;;;;18.85;16.00;;;13.20;99.90;;;;;;12198459;28;20082;-80
2021/05/11 21:40:16;;;;;;;20.42;16.25;;;13.20;99.90;;;;;;12207494;28;20591;-80
2021/05/11 21:46:18;;;;;;;18.38;16.10;;;13.10;99.90;;;;;;12202397;29;20131;-80
2021/05/11 21:52:20;;;;;;;19.02;16.15;;;13.00;99.90;;;;;;12201512;28;20094;-80
2021/05/11 21:58:22;;;;;;;24.50;16.85;;;13.10;99.90;;;;;;12205195;28;20477;-80
2021/05/11 22:04:24;;;;;;;20.08;17.00;;;13.10;99.90;;;;;;12200061;28;20139;-80
2021/05/11 22:10:31;;;;;;;19.27;16.92;;;13.10;99.90;;;;;;12223686;28;20063;-80
2021/05/11 22:16:34;;;;;;;18.83;15.43;;;13.10;99.90;;;;;;12205411;28;20079;-80
2021/05/11 22:22:36;;;;;;;19.20;15.23;;;13.10;99.90;;;;;;12218789;28;20051;-80
2021/05/11 22:28:38;;;;;;;19.95;16.20;;;13.10;99.90;;;;;;12221361;28;20071;-80
2021/05/11 22:34:40;;;;;;;21.48;17.10;;;13.10;99.90;;;;;;12220828;28;20526;-80
2021/05/11 22:40:42;;;;;;;19.50;16.42;;;13.10;99.90;;;;;;12214511;28;20593;-80
2021/05/11 22:46:43;;;;;;;18.40;16.40;;;13.10;99.90;;;;;;12211965;28;20135;-80
2021/05/11 22:52:45;;;;;;;20.08;16.52;;;13.00;99.90;;;;;;12217531;28;20048;-80
2021/05/11 22:58:47;;;;;;;23.45;17.85;;;13.10;99.90;;;;;;12214357;28;20146;-80
2021/05/11 23:04:49;;;;;;;22.52;17.85;;;13.10;99.90;;;;;;12213458;28;20408;-80
2021/05/11 23:10:51;;;;;;;21.77;18.08;;;13.00;99.90;;;;;;12254442;28;20040;-80
2021/05/11 23:16:56;;;;;;;26.80;20.77;;;13.10;99.90;;;;;;12261768;28;20028;-79
2021/05/11 23:22:59;;;;;;;26.33;21.17;;;13.20;99.90;;;;;;12207270;28;20731;-80
2021/05/11 23:29:01;;;;;;;29.85;21.60;;;13.20;99.90;;;;;;12207747;28;20138;-80
2021/05/11 23:35:06;;;;;;;24.98;21.88;;;13.10;99.90;;;;;;12165727;28;20090;-80
2021/05/11 23:41:08;;;;;;;29.55;24.25;;;13.10;99.90;;;;;;12154199;28;20139;-80
2021/05/11 23:47:10;;;;;;;30.55;25.08;;;13.00;99.90;;;;;;12179770;28;20391;-81
2021/05/11 23:53:12;;;;;;;29.52;24.05;;;13.00;99.90;;;;;;12181426;28;20052;-80
2021/05/11 23:59:13;;;;;;;31.55;24.90;;;13.00;99.90;;;;;;12217038;28;20056;-80
